Etusivu
METAR-TAF:

METAR-TAF

Lentoasemat :

Omaha, Nebraska, Yhdysvallat

Leveyspiiri: 41-11-45N, Pituuspiiri: 096-06-44W, korkeus merenpinnasta: 320 m

Tämänhetkinen sää

Tämä raportti tehtiin 40 minuuttia sitten, kello 04.35 UTC
Tuuli 6 kn kaakosta
Lämpötila 25°C
Kosteus 89%
Ilmanpaine 1021 hPa
Näkyvyys: 16.1 km
selkeää

METAR: KMLE 210435Z AUTO 13006KT 10SM CLR 25/23 A3015 RMK AO2 T02490226

Aika: 00:15 (05:15 UTC)


TAF: puuttuu

Säähavainnot ja -ennusteet yli 4000 lentoasemalta (METAR- ja TAF-raportit).

Käytössä olevat sääasemat on merkitty karttaan keltaisilla ja punaisilla pisteillä.

Aseta hiiri pisteen päälle nähdäksesi sääaseman nimen.

Klikkaa sitten nähdäksesi säähavainnot ja -ennusteet.

Kartan vaihtaminen: klikkaa mustalla rastilla varustettuja vihreitä pisteitä, niin voit zoomata sisään; viivalla varustettua vihreää pistettä, niin voit zoomata ulos tai vihreitä nuolia, niin pääset viereisille kartoille.


METAR-TAF: